| time (UTC) | temp F | wind direction | speed knots | gust knots | rain 1hr in | rain 24hr in | rain mn in | humidity % | barometer mb |
| 20260503012908 | 63 | 206 | 2.6 | 8.7 | 0.00 | 0.00 | 0.00 | 36 | 1009.9 |
| 20260503010838 | 62 | 171 | 0.9 | 1.7 | 0.00 | 0.00 | 0.00 | 40 | 1009.9 |
| 20260503004808 | 62 | 180 | 0.9 | 2.6 | 0.00 | 0.00 | 0.00 | 39 | 1010.1 |
| 20260503002807 | 63 | 69 | 1.7 | 2.6 | 0.00 | 0.00 | 0.00 | 37 | 1010.4 |
| 20260503000737 | 64 | 162 | 0.9 | 2.6 | 0.00 | 0.00 | 0.00 | 36 | 1010.4 |
| 20260502234707 | 64 | 149 | 0.9 | 3.5 | 0.00 | 0.00 | 0.00 | 34 | 1010.3 |
| 20260502232637 | 64 | 106 | 0.9 | 3.5 | 0.00 | 0.00 | 0.00 | 34 | 1010.5 |
| 20260502230637 | 64 | 144 | 0.9 | 1.7 | 0.00 | 0.00 | 0.00 | 34 | 1010.9 |
| 20260502224637 | 64 | 129 | 0.9 | 1.7 | 0.00 | 0.00 | 0.00 | 34 | 1011.0 |
| 20260502222637 | 65 | 115 | 1.7 | 3.5 | 0.00 | 0.00 | 0.00 | 34 | 1011.2 |
| 20260502220637 | 65 | 216 | 1.7 | 5.2 | 0.00 | 0.00 | 0.00 | 33 | 1011.1 |
| 20260502214607 | 65 | 203 | 2.6 | 7.0 | 0.00 | 0.00 | 0.00 | 34 | 1011.6 |
| 20260502212537 | 65 | 62 | 1.7 | 3.5 | 0.00 | 0.00 | 0.00 | 32 | 1011.8 |
| 20260502210507 | 64 | 49 | 1.7 | 3.5 | 0.00 | 0.00 | 0.00 | 32 | 1012.3 |
| 20260502204437 | 65 | 125 | 1.7 | 5.2 | 0.00 | 0.00 | 0.00 | 32 | 1012.7 |
| 20260502202437 | 64 | 206 | 2.6 | 7.0 | 0.00 | 0.00 | 0.00 | 30 | 1013.2 |
| 20260502200407 | 65 | 32 | 1.7 | 3.5 | 0.00 | 0.00 | 0.00 | 30 | 1013.2 |
| 20260502194337 | 64 | 164 | 2.6 | 6.1 | 0.00 | 0.00 | 0.00 | 32 | 1013.6 |
| 20260502192337 | 63 | 183 | 2.6 | 7.8 | 0.00 | 0.00 | 0.00 | 32 | 1014.2 |
| 20260502190337 | 63 | 315 | 2.6 | 3.5 | 0.00 | 0.00 | 0.00 | 32 | 1014.7 |
| 20260502184307 | 62 | 76 | 1.7 | 3.5 | 0.00 | 0.00 | 0.00 | 33 | 1014.9 |
| 20260502182347 | 60 | 34 | 1.7 | 5.2 | 0.00 | 0.00 | 0.00 | 34 | 1015.1 |
| 20260502182237 | 60 | 34 | 1.7 | 5.2 | 0.00 | 0.00 | 0.00 | 34 | 1015.1 |
| 20260502181310 | 60 | 157 | 1.7 | 3.5 | 0.00 | 0.00 | 0.00 | 33 | 1015.5 |
| 20260502180207 | 60 | 157 | 1.7 | 3.5 | 0.00 | 0.00 | 0.00 | 33 | 1015.5 |
| 20260502164007 | 57 | 93 | 1.7 | 5.2 | 0.00 | 0.00 | 0.00 | 35 | 1016.8 |
| 20260502161937 | 56 | 18 | 1.7 | 5.2 | 0.00 | 0.00 | 0.00 | 37 | 1017.1 |
| 20260502151836 | 54 | 54 | 1.7 | 5.2 | 0.00 | 0.00 | 0.00 | 40 | 1017.8 |
| 20260502123606 | 40 | 30 | 0.0 | 0.9 | 0.00 | 0.00 | 0.00 | 70 | 1018.1 |
| 20260502121536 | 38 | 30 | 0.9 | 0.9 | 0.00 | 0.00 | 0.00 | 74 | 1017.9 |
| 20260502115547 | 35 | 30 | 0.0 | 0.9 | 0.00 | 0.00 | 0.00 | 82 | 1018.0 |
| 20260502115506 | 35 | 30 | 0.0 | 0.9 | 0.00 | 0.00 | 0.00 | 82 | 1018.0 |
| 20260502113436 | 33 | 0 | 0.0 | 0.0 | 0.00 | 0.00 | 0.00 | 83 | 1017.8 |
| 20260502111406 | 33 | 0 | 0.0 | 0.0 | 0.00 | 0.00 | 0.00 | 83 | 1017.9 |
| 20260502105336 | 32 | 30 | 0.0 | 0.9 | 0.00 | 0.00 | 0.00 | 84 | 1017.7 |
| 20260502103336 | 33 | 0 | 0.0 | 0.0 | 0.00 | 0.00 | 0.00 | 82 | 1017.8 |
| 20260502101336 | 33 | 0 | 0.0 | 0.0 | 0.00 | 0.00 | 0.00 | 82 | 1017.8 |
| 20260502091504 | 35 | 0 | 0.0 | 0.0 | 0.00 | 0.00 | 0.00 | 79 | 1017.7 |
| 20260502091235 | 35 | 0 | 0.0 | 0.0 | 0.00 | 0.00 | 0.00 | 79 | 1017.7 |
| 20260502071005 | 36 | 0 | 0.0 | 0.0 | 0.00 | 0.00 | 0.00 | 75 | 1017.8 |
| 20260502065009 | 36 | 0 | 0.0 | 0.0 | 0.00 | 0.00 | 0.00 | 74 | 1018.1 |
| 20260502064935 | 36 | 0 | 0.0 | 0.0 | 0.00 | 0.00 | 0.00 | 74 | 1018.1 |
| 20260502062905 | 36 | 30 | 0.0 | 0.9 | 0.00 | 0.00 | 0.00 | 74 | 1018.0 |
| 20260502060835 | 36 | 30 | 0.0 | 0.9 | 0.00 | 0.00 | 0.00 | 73 | 1018.1 |
| 20260502054805 | 37 | 0 | 0.0 | 0.0 | 0.00 | 0.00 | 0.00 | 72 | 1018.0 |
| 20260502052807 | 37 | 0 | 0.0 | 0.0 | 0.00 | 0.00 | 0.00 | 71 | 1018.2 |
| 20260502052735 | 37 | 0 | 0.0 | 0.0 | 0.00 | 0.00 | 0.00 | 71 | 1018.2 |
| 20260502050705 | 38 | 0 | 0.0 | 0.0 | 0.00 | 0.00 | 0.00 | 69 | 1017.9 |
| 20260502044706 | 38 | 0 | 0.0 | 0.0 | 0.00 | 0.00 | 0.00 | 67 | 1017.9 |
| 20260502044635 | 38 | 0 | 0.0 | 0.0 | 0.00 | 0.00 | 0.00 | 67 | 1017.9 |
| 20260502042642 | 39 | 0 | 0.0 | 0.0 | 0.00 | 0.00 | 0.00 | 66 | 1018.0 |
| 20260502042605 | 39 | 0 | 0.0 | 0.0 | 0.00 | 0.00 | 0.00 | 66 | 1018.0 |
| 20260502040535 | 39 | 0 | 0.0 | 0.0 | 0.00 | 0.00 | 0.00 | 65 | 1018.0 |
| 20260502034505 | 40 | 0 | 0.0 | 0.0 | 0.00 | 0.00 | 0.00 | 63 | 1018.3 |
| 20260502032435 | 40 | 0 | 0.0 | 0.0 | 0.00 | 0.00 | 0.00 | 61 | 1018.3 |
| 20260502030405 | 41 | 0 | 0.0 | 0.0 | 0.00 | 0.00 | 0.00 | 57 | 1018.1 |
| 20260502024335 | 42 | 0 | 0.0 | 0.0 | 0.00 | 0.00 | 0.00 | 55 | 1018.0 |
| 20260502022306 | 43 | 0 | 0.0 | 0.0 | 0.00 | 0.00 | 0.00 | 51 | 1017.9 |
| 20260502020235 | 44 | 0 | 0.0 | 0.0 | 0.00 | 0.00 | 0.00 | 47 | 1017.9 |